createdAt,value
2024-05-09T00:00:10.402Z,40.78
2024-05-09T00:01:08.283Z,40.78
2024-05-09T00:02:07.275Z,40.80
2024-05-09T00:03:07.515Z,40.77
2024-05-09T00:04:07.308Z,40.75
2024-05-09T00:05:07.395Z,40.77
2024-05-09T00:06:07.342Z,40.75
2024-05-09T00:07:07.246Z,40.74
2024-05-09T00:08:07.318Z,40.72
2024-05-09T00:09:07.250Z,40.73
2024-05-09T00:10:11.697Z,40.73
2024-05-09T00:11:08.370Z,40.74
2024-05-09T00:12:07.329Z,40.70
2024-05-09T00:13:07.677Z,40.71
2024-05-09T00:14:07.323Z,40.71
2024-05-09T00:15:07.267Z,40.71
2024-05-09T00:16:07.287Z,40.71
2024-05-09T00:17:07.353Z,40.69
2024-05-09T00:18:08.048Z,40.70
2024-05-09T00:19:07.361Z,40.68
2024-05-09T00:20:14.321Z,40.68
2024-05-09T00:21:08.474Z,40.67
2024-05-09T00:22:07.276Z,40.67
2024-05-09T00:23:07.846Z,40.65
2024-05-09T00:24:07.260Z,40.64
2024-05-09T00:25:07.291Z,40.63
2024-05-09T00:26:07.330Z,40.65
2024-05-09T00:27:08.361Z,40.63
2024-05-09T00:28:07.265Z,40.62
2024-05-09T00:29:07.335Z,40.62
2024-05-09T00:30:07.511Z,40.61
2024-05-09T00:31:07.292Z,40.62
2024-05-09T00:32:07.408Z,40.63
2024-05-09T00:33:08.876Z,40.64
2024-05-09T00:34:07.460Z,40.62
2024-05-09T00:35:07.335Z,40.63
2024-05-09T00:36:07.322Z,40.64
2024-05-09T00:37:07.299Z,40.64
2024-05-09T00:38:07.468Z,40.64
2024-05-09T00:39:07.298Z,40.65
2024-05-09T00:40:09.622Z,40.62
2024-05-09T00:41:08.355Z,40.63
2024-05-09T00:42:07.319Z,40.62
2024-05-09T00:43:07.316Z,40.62
2024-05-09T00:44:07.335Z,40.61
2024-05-09T00:45:07.292Z,40.58
2024-05-09T00:46:07.317Z,40.60
2024-05-09T00:47:07.669Z,40.59
2024-05-09T00:48:08.955Z,40.59
2024-05-09T00:49:07.353Z,40.60
2024-05-09T00:50:12.636Z,40.58
2024-05-09T00:51:08.383Z,40.59
2024-05-09T00:52:07.326Z,40.57
2024-05-09T00:53:07.385Z,40.54
2024-05-09T00:54:07.322Z,40.54
2024-05-09T00:55:07.333Z,40.54
2024-05-09T00:56:07.367Z,40.57
2024-05-09T00:57:07.332Z,40.54
2024-05-09T00:58:07.335Z,40.57
2024-05-09T00:59:07.376Z,40.55
2024-05-09T01:00:15.024Z,40.55
2024-05-09T01:01:08.358Z,40.54
2024-05-09T01:02:07.408Z,40.53
2024-05-09T01:03:07.955Z,40.51
2024-05-09T01:04:07.413Z,40.52
2024-05-09T01:05:07.447Z,40.51
2024-05-09T01:06:07.379Z,40.52
2024-05-09T01:07:07.342Z,40.50
2024-05-09T01:08:07.500Z,40.52
2024-05-09T01:09:07.340Z,40.51
2024-05-09T01:10:13.920Z,40.50
2024-05-09T01:11:08.487Z,40.49
2024-05-09T01:12:07.435Z,40.50
2024-05-09T01:13:07.708Z,40.47
2024-05-09T01:14:07.383Z,40.47
2024-05-09T01:15:07.368Z,40.48
2024-05-09T01:16:07.384Z,40.45
2024-05-09T01:17:07.436Z,40.47
2024-05-09T01:18:07.763Z,40.46
2024-05-09T01:19:07.516Z,40.48
2024-05-09T01:20:10.814Z,40.48
2024-05-09T01:21:08.489Z,40.48
2024-05-09T01:22:07.399Z,40.46
2024-05-09T01:23:07.626Z,40.45
2024-05-09T01:24:07.408Z,40.44
2024-05-09T01:25:07.399Z,40.44
2024-05-09T01:26:07.434Z,40.44
2024-05-09T01:27:07.407Z,40.43
2024-05-09T01:28:07.473Z,40.41
2024-05-09T01:29:07.453Z,40.41
2024-05-09T01:30:09.601Z,40.41
2024-05-09T01:31:08.403Z,40.43
2024-05-09T01:32:07.482Z,40.42
2024-05-09T01:33:09.454Z,40.41
2024-05-09T01:34:07.469Z,40.42
2024-05-09T01:35:07.443Z,40.41
2024-05-09T01:36:07.446Z,40.40
2024-05-09T01:37:07.430Z,40.41
2024-05-09T01:38:07.522Z,40.40
2024-05-09T01:39:07.435Z,40.38
2024-05-09T01:40:12.128Z,40.40
2024-05-09T01:41:08.460Z,40.43
2024-05-09T01:42:07.444Z,40.42
2024-05-09T01:43:07.729Z,40.42
2024-05-09T01:44:07.479Z,40.41
2024-05-09T01:45:07.432Z,40.39
2024-05-09T01:46:07.428Z,40.39
2024-05-09T01:47:07.484Z,40.39
2024-05-09T01:48:07.549Z,40.38
2024-05-09T01:49:07.531Z,40.40
2024-05-09T01:50:10.698Z,40.39
2024-05-09T01:51:07.627Z,40.38
2024-05-09T01:52:07.468Z,40.38
2024-05-09T01:53:07.578Z,40.37
2024-05-09T01:54:07.444Z,40.37
2024-05-09T01:55:07.449Z,40.32
2024-05-09T01:56:07.502Z,40.36
2024-05-09T01:57:07.471Z,40.33
2024-05-09T01:58:07.706Z,40.33
2024-05-09T01:59:07.522Z,40.31
2024-05-09T02:00:08.042Z,40.31
2024-05-09T02:01:07.467Z,40.31
2024-05-09T02:02:07.619Z,40.29
2024-05-09T02:03:07.730Z,40.27
2024-05-09T02:04:07.581Z,40.28
2024-05-09T02:05:07.586Z,40.27
2024-05-09T02:06:07.552Z,40.27
2024-05-09T02:07:07.470Z,40.26
2024-05-09T02:08:07.570Z,40.26
2024-05-09T02:09:07.470Z,40.25
2024-05-09T02:10:13.785Z,40.23
2024-05-09T02:11:08.537Z,40.23
2024-05-09T02:12:07.592Z,40.23
2024-05-09T02:13:07.474Z,40.23
2024-05-09T02:14:07.549Z,40.21
2024-05-09T02:15:07.486Z,40.21
2024-05-09T02:16:07.461Z,40.21
2024-05-09T02:17:07.532Z,40.19
2024-05-09T02:18:07.780Z,40.19
2024-05-09T02:19:07.543Z,40.17
2024-05-09T02:20:10.776Z,40.17
2024-05-09T02:21:08.535Z,40.18
2024-05-09T02:22:07.504Z,40.19
2024-05-09T02:23:07.642Z,40.17
2024-05-09T02:24:07.499Z,40.19
2024-05-09T02:25:07.497Z,40.16
2024-05-09T02:26:07.556Z,40.15
2024-05-09T02:27:07.516Z,40.16
2024-05-09T02:28:07.510Z,40.13
2024-05-09T02:29:07.576Z,40.15
2024-05-09T02:30:18.364Z,40.15
2024-05-09T02:31:08.531Z,40.15
2024-05-09T02:32:07.584Z,40.16
2024-05-09T02:33:08.190Z,40.14
2024-05-09T02:34:07.616Z,40.15
2024-05-09T02:35:07.592Z,40.14
2024-05-09T02:36:07.542Z,40.12
2024-05-09T02:37:07.539Z,40.16
2024-05-09T02:38:07.548Z,40.13
2024-05-09T02:39:07.548Z,40.13
2024-05-09T02:40:11.577Z,40.12
2024-05-09T02:41:08.558Z,40.15
2024-05-09T02:42:07.553Z,40.15
2024-05-09T02:43:08.157Z,40.14
2024-05-09T02:44:07.600Z,40.13
2024-05-09T02:45:07.566Z,40.12
2024-05-09T02:46:07.533Z,40.13
2024-05-09T02:47:07.656Z,40.11
2024-05-09T02:48:07.720Z,40.10
2024-05-09T02:49:07.669Z,40.12
2024-05-09T02:50:08.309Z,40.12
2024-05-09T02:51:07.608Z,40.11
2024-05-09T02:52:07.552Z,40.09
2024-05-09T02:53:07.957Z,40.09
2024-05-09T02:54:07.544Z,40.07
2024-05-09T02:55:07.545Z,40.08
2024-05-09T02:56:07.602Z,40.08
2024-05-09T02:57:07.582Z,40.07
2024-05-09T02:58:07.570Z,40.05
2024-05-09T02:59:07.587Z,40.06
2024-05-09T03:00:15.011Z,40.07
2024-05-09T03:01:08.597Z,40.05
2024-05-09T03:02:07.694Z,40.07
2024-05-09T03:03:08.225Z,40.06
2024-05-09T03:04:07.726Z,40.03
2024-05-09T03:05:07.602Z,40.03
2024-05-09T03:06:07.591Z,40.05
2024-05-09T03:07:07.598Z,40.04
2024-05-09T03:08:07.762Z,40.04
2024-05-09T03:09:07.602Z,40.05
2024-05-09T03:10:14.879Z,40.04
2024-05-09T03:11:08.756Z,40.03
2024-05-09T03:12:07.716Z,40.02
2024-05-09T03:13:07.696Z,40.03
2024-05-09T03:14:07.631Z,40.02
2024-05-09T03:15:07.614Z,40.03
2024-05-09T03:16:07.606Z,40.01
2024-05-09T03:17:07.679Z,40.01
2024-05-09T03:18:07.870Z,40.01
2024-05-09T03:19:07.731Z,40.00
2024-05-09T03:20:16.992Z,39.99
2024-05-09T03:21:08.813Z,39.99
2024-05-09T03:22:07.606Z,40.02
2024-05-09T03:23:08.484Z,39.99
2024-05-09T03:24:07.615Z,40.01
2024-05-09T03:25:07.619Z,40.00
2024-05-09T03:26:07.666Z,39.99
2024-05-09T03:27:07.648Z,40.00
2024-05-09T03:28:07.682Z,39.99
2024-05-09T03:29:07.661Z,40.00
2024-05-09T03:30:09.682Z,40.02
2024-05-09T03:31:07.640Z,40.00
2024-05-09T03:32:07.709Z,40.02
2024-05-09T03:33:07.879Z,40.00
2024-05-09T03:34:07.761Z,40.00
2024-05-09T03:35:07.667Z,40.00
2024-05-09T03:36:10.961Z,39.99
2024-05-09T03:37:07.674Z,40.01
2024-05-09T03:38:07.691Z,40.00
2024-05-09T03:39:07.645Z,40.00
2024-05-09T03:40:11.794Z,40.01
2024-05-09T03:41:08.725Z,40.02
2024-05-09T03:42:07.660Z,40.03
2024-05-09T03:43:07.668Z,40.03
2024-05-09T03:44:07.711Z,40.02
2024-05-09T03:45:07.663Z,40.01
2024-05-09T03:46:07.678Z,40.01
2024-05-09T03:47:07.721Z,40.00
2024-05-09T03:48:07.940Z,40.00
2024-05-09T03:49:07.758Z,40.00
2024-05-09T03:50:15.220Z,39.97
2024-05-09T03:51:08.779Z,39.98
2024-05-09T03:52:07.668Z,40.00
2024-05-09T03:53:07.708Z,39.98
2024-05-09T03:54:07.662Z,39.99
2024-05-09T03:55:07.654Z,39.96
2024-05-09T03:56:07.753Z,39.94
2024-05-09T03:57:07.709Z,39.96
2024-05-09T03:58:07.727Z,39.94
2024-05-09T03:59:07.719Z,39.94
2024-05-09T04:00:14.781Z,39.94
2024-05-09T04:01:08.744Z,39.96
2024-05-09T04:02:07.749Z,39.90
2024-05-09T04:03:10.230Z,39.91
2024-05-09T04:04:07.699Z,39.92
2024-05-09T04:05:07.700Z,39.90
2024-05-09T04:06:07.682Z,39.89
2024-05-09T04:07:07.729Z,39.87
2024-05-09T04:08:07.815Z,39.85
2024-05-09T04:09:07.709Z,39.85
2024-05-09T04:10:11.167Z,39.86
2024-05-09T04:11:08.752Z,39.85
2024-05-09T04:12:07.797Z,39.85
2024-05-09T04:13:07.743Z,39.81
2024-05-09T04:14:07.728Z,39.86
2024-05-09T04:15:11.232Z,39.85
2024-05-09T04:16:08.712Z,39.87
2024-05-09T04:17:07.785Z,39.88
2024-05-09T04:18:07.985Z,39.84
2024-05-09T04:19:07.842Z,39.86
2024-05-09T04:20:10.562Z,39.85
2024-05-09T04:21:07.789Z,39.88
2024-05-09T04:22:07.752Z,39.85
2024-05-09T04:23:08.798Z,39.85
2024-05-09T04:24:07.709Z,39.84
2024-05-09T04:25:07.730Z,39.84
2024-05-09T04:26:07.755Z,39.83
2024-05-09T04:27:07.740Z,39.85
2024-05-09T04:28:07.732Z,39.81
2024-05-09T04:29:07.829Z,39.84
2024-05-09T04:30:12.255Z,39.82
2024-05-09T04:31:08.731Z,39.84
2024-05-09T04:32:07.888Z,39.83
2024-05-09T04:33:09.533Z,39.80
2024-05-09T04:34:07.814Z,39.82
2024-05-09T04:35:07.790Z,39.80
2024-05-09T04:36:07.759Z,39.79
2024-05-09T04:37:07.739Z,39.81
2024-05-09T04:38:07.783Z,39.77
2024-05-09T04:39:07.746Z,39.77
2024-05-09T04:40:14.062Z,39.77
2024-05-09T04:41:08.823Z,39.77
2024-05-09T04:42:07.767Z,39.78
2024-05-09T04:43:07.800Z,39.77
2024-05-09T04:44:08.786Z,39.76
2024-05-09T04:45:07.753Z,39.74
2024-05-09T04:46:07.760Z,39.76
2024-05-09T04:47:15.314Z,39.78
2024-05-09T04:48:15.201Z,39.78
2024-05-09T04:49:15.309Z,39.81
2024-05-09T04:50:25.170Z,39.80
2024-05-09T04:51:16.131Z,39.81
2024-05-09T04:52:15.083Z,39.78
2024-05-09T04:53:15.265Z,39.77
2024-05-09T04:54:26.090Z,39.74
2024-05-09T04:55:16.081Z,39.74
2024-05-09T04:56:15.139Z,39.75
2024-05-09T04:57:15.094Z,39.73
2024-05-09T04:58:15.103Z,39.74
2024-05-09T04:59:15.111Z,39.75
2024-05-09T05:00:21.945Z,39.71
2024-05-09T05:01:16.198Z,39.72
2024-05-09T05:02:15.231Z,39.69
2024-05-09T05:03:16.332Z,39.70
2024-05-09T05:04:15.300Z,39.68
2024-05-09T05:05:15.528Z,39.68
2024-05-09T05:06:15.131Z,39.68
2024-05-09T05:07:15.106Z,39.69
2024-05-09T05:08:15.579Z,39.70
2024-05-09T05:09:15.108Z,39.69
2024-05-09T05:10:21.674Z,39.69
2024-05-09T05:11:16.207Z,39.69
2024-05-09T05:12:15.254Z,39.70
2024-05-09T05:13:15.181Z,39.70
2024-05-09T05:14:15.177Z,39.69
2024-05-09T05:15:15.146Z,39.69
2024-05-09T05:16:15.138Z,39.73
2024-05-09T05:17:15.172Z,39.73
2024-05-09T05:18:15.384Z,39.74
2024-05-09T05:19:17.540Z,39.75
2024-05-09T05:20:21.280Z,39.75
2024-05-09T05:21:16.421Z,39.75
2024-05-09T05:22:15.323Z,39.75
2024-05-09T05:23:15.737Z,39.76
2024-05-09T05:24:15.319Z,39.76
2024-05-09T05:25:15.360Z,39.77
2024-05-09T05:26:15.338Z,39.75
2024-05-09T05:27:15.330Z,39.74
2024-05-09T05:28:15.331Z,39.77
2024-05-09T05:29:17.205Z,39.79
2024-05-09T05:30:21.413Z,39.81
2024-05-09T05:31:16.434Z,39.78
2024-05-09T05:32:15.550Z,39.80
2024-05-09T05:33:15.974Z,39.80
2024-05-09T05:34:15.347Z,39.80
2024-05-09T05:35:15.384Z,39.80
2024-05-09T05:36:15.367Z,39.83
2024-05-09T05:37:15.351Z,39.79
2024-05-09T05:38:15.448Z,39.82
2024-05-09T05:39:15.366Z,39.84
2024-05-09T05:40:25.236Z,39.84
2024-05-09T05:41:16.570Z,39.86
2024-05-09T05:42:15.364Z,39.88
2024-05-09T05:43:15.361Z,39.86
2024-05-09T05:44:15.401Z,39.87
2024-05-09T05:45:15.364Z,39.87
2024-05-09T05:46:15.393Z,39.86
2024-05-09T05:47:15.443Z,39.91
2024-05-09T05:48:15.727Z,39.86
2024-05-09T05:49:15.503Z,39.88
2024-05-09T05:50:24.452Z,39.88
2024-05-09T05:51:16.616Z,39.91
2024-05-09T05:52:15.379Z,39.91
2024-05-09T05:53:15.903Z,39.94
2024-05-09T05:54:15.412Z,39.92
2024-05-09T05:55:15.389Z,39.89
2024-05-09T05:56:15.428Z,39.91
2024-05-09T05:57:15.387Z,39.93
2024-05-09T05:58:15.410Z,39.91
2024-05-09T05:59:15.772Z,39.94
2024-05-09T06:00:25.917Z,39.93
2024-05-09T06:01:16.480Z,39.94
2024-05-09T06:02:15.625Z,39.96
2024-05-09T06:03:15.526Z,39.92
2024-05-09T06:04:15.490Z,39.94
2024-05-09T06:05:15.476Z,39.95
2024-05-09T06:06:15.425Z,39.96
2024-05-09T06:07:15.427Z,39.95
2024-05-09T06:08:15.438Z,39.92
2024-05-09T06:09:15.414Z,39.96
2024-05-09T06:10:21.400Z,39.97
2024-05-09T06:11:16.501Z,39.97
2024-05-09T06:12:15.546Z,39.98
2024-05-09T06:13:15.414Z,39.97
2024-05-09T06:14:15.446Z,39.99
2024-05-09T06:15:15.427Z,39.98
2024-05-09T06:16:15.416Z,39.95
2024-05-09T06:17:15.528Z,39.94
2024-05-09T06:18:15.594Z,39.98
2024-05-09T06:19:15.483Z,39.97
2024-05-09T06:20:20.749Z,39.97
2024-05-09T06:21:16.691Z,39.97
2024-05-09T06:22:15.426Z,39.96
2024-05-09T06:23:15.513Z,39.96
2024-05-09T06:24:15.440Z,39.96
2024-05-09T06:25:15.472Z,39.96
2024-05-09T06:26:15.521Z,39.95
2024-05-09T06:27:15.435Z,39.95
2024-05-09T06:28:15.486Z,39.97
2024-05-09T06:29:15.553Z,39.96
2024-05-09T06:30:25.653Z,39.95
2024-05-09T06:31:16.478Z,39.96
2024-05-09T06:32:15.548Z,39.92
2024-05-09T06:33:16.683Z,39.94
2024-05-09T06:34:15.739Z,39.94
2024-05-09T06:35:15.548Z,39.96
2024-05-09T06:36:15.498Z,39.92
2024-05-09T06:37:15.505Z,39.92
2024-05-09T06:38:15.555Z,39.95
2024-05-09T06:39:15.490Z,39.93
2024-05-09T06:40:21.352Z,39.94
2024-05-09T06:41:16.522Z,39.92
2024-05-09T06:42:15.513Z,39.93
2024-05-09T06:43:17.697Z,39.92
2024-05-09T06:44:15.571Z,39.93
2024-05-09T06:45:15.496Z,39.92
2024-05-09T06:46:15.525Z,39.93
2024-05-09T06:47:15.674Z,39.90
2024-05-09T06:48:15.664Z,39.91
2024-05-09T06:49:15.777Z,39.89
2024-05-09T06:50:23.362Z,39.90
2024-05-09T06:51:16.677Z,39.93
2024-05-09T06:52:15.518Z,39.91
2024-05-09T06:53:15.608Z,39.89
2024-05-09T06:54:15.533Z,39.90
2024-05-09T06:55:15.538Z,39.89
2024-05-09T06:56:15.568Z,39.88
2024-05-09T06:57:15.576Z,39.90
2024-05-09T06:58:15.553Z,39.89
2024-05-09T06:59:15.580Z,39.87
2024-05-09T07:00:22.877Z,39.89
2024-05-09T07:01:16.621Z,39.88
2024-05-09T07:02:15.786Z,39.89
2024-05-09T07:03:17.653Z,39.89
2024-05-09T07:04:15.775Z,39.89
2024-05-09T07:05:15.824Z,39.89
2024-05-09T07:06:15.588Z,39.91
2024-05-09T07:07:15.567Z,39.89
2024-05-09T07:08:15.745Z,39.89
2024-05-09T07:09:15.565Z,39.90
2024-05-09T07:10:22.083Z,39.91
2024-05-09T07:11:16.662Z,39.91
2024-05-09T07:12:15.667Z,39.93
2024-05-09T07:13:15.973Z,39.93
2024-05-09T07:14:15.599Z,39.92
2024-05-09T07:15:15.569Z,39.93
2024-05-09T07:16:15.567Z,39.94
2024-05-09T07:17:15.700Z,39.93
2024-05-09T07:18:16.899Z,39.91
2024-05-09T07:19:15.912Z,39.94
2024-05-09T07:20:23.180Z,39.94
2024-05-09T07:21:16.881Z,39.94
2024-05-09T07:22:15.743Z,39.95
2024-05-09T07:23:16.148Z,39.93
2024-05-09T07:24:15.787Z,39.95
2024-05-09T07:25:15.747Z,39.95
2024-05-09T07:26:15.825Z,39.97
2024-05-09T07:27:15.745Z,39.98
2024-05-09T07:28:15.858Z,39.98
2024-05-09T07:29:15.788Z,39.98
2024-05-09T07:30:22.957Z,39.96
2024-05-09T07:31:16.749Z,39.98
2024-05-09T07:32:15.816Z,39.98
2024-05-09T07:33:16.005Z,39.97
2024-05-09T07:34:15.866Z,39.97
2024-05-09T07:35:15.823Z,39.99
2024-05-09T07:36:15.836Z,39.99
2024-05-09T07:37:15.781Z,39.98
2024-05-09T07:38:15.832Z,39.99
2024-05-09T07:39:15.763Z,40.00
2024-05-09T07:40:24.859Z,39.99
2024-05-09T07:41:16.824Z,39.97
2024-05-09T07:42:15.797Z,39.99
2024-05-09T07:43:16.023Z,39.98
2024-05-09T07:44:15.811Z,39.97
2024-05-09T07:45:38.940Z,39.98
2024-05-09T07:47:14.317Z,39.97
2024-05-09T07:48:28.951Z,40.00
2024-05-09T07:49:59.720Z,40.00
2024-05-09T07:50:56.072Z,40.01
2024-05-09T07:53:29.858Z,40.02
2024-05-09T07:53:37.928Z,40.03
2024-05-09T07:54:17.081Z,40.00
2024-05-09T07:55:16.120Z,40.00
2024-05-09T07:56:16.287Z,39.98
2024-05-09T07:57:15.922Z,39.98
2024-05-09T07:58:15.828Z,39.97
2024-05-09T07:59:15.845Z,39.95
2024-05-09T08:00:23.467Z,39.95
2024-05-09T08:01:16.953Z,39.97
2024-05-09T08:02:15.946Z,39.96
2024-05-09T08:03:16.091Z,39.93
2024-05-09T08:04:15.900Z,39.95
2024-05-09T08:05:16.040Z,39.92
2024-05-09T08:06:15.845Z,39.92
2024-05-09T08:07:15.916Z,39.92
2024-05-09T08:08:15.851Z,39.90
2024-05-09T08:09:20.814Z,39.87
2024-05-09T08:10:22.048Z,39.87
2024-05-09T08:11:17.029Z,39.87
2024-05-09T08:12:15.864Z,39.86
2024-05-09T08:13:15.965Z,39.87
2024-05-09T08:14:15.852Z,39.86
2024-05-09T08:15:15.900Z,39.86
2024-05-09T08:16:15.965Z,39.85
2024-05-09T08:17:15.918Z,39.84
2024-05-09T08:18:16.086Z,39.86
2024-05-09T08:19:15.957Z,39.85
2024-05-09T08:20:23.004Z,39.83
2024-05-09T08:21:16.896Z,39.85
2024-05-09T08:22:15.972Z,39.81
2024-05-09T08:23:15.940Z,39.81
2024-05-09T08:24:15.896Z,39.79
2024-05-09T08:25:15.981Z,39.79
2024-05-09T08:26:15.902Z,39.78
2024-05-09T08:27:15.908Z,39.77
2024-05-09T08:28:16.108Z,39.76
2024-05-09T08:29:15.924Z,39.76
2024-05-09T08:30:22.016Z,39.75
2024-05-09T08:31:16.974Z,39.77
2024-05-09T08:32:15.963Z,39.77
2024-05-09T08:33:16.117Z,39.75
2024-05-09T08:34:16.084Z,39.74
2024-05-09T08:35:15.890Z,39.74
2024-05-09T08:36:15.919Z,39.74
2024-05-09T08:37:22.124Z,39.73
2024-05-09T08:38:16.919Z,39.75
2024-05-09T08:39:15.927Z,39.75
2024-05-09T08:40:23.833Z,39.75
2024-05-09T08:41:16.926Z,39.77
2024-05-09T08:42:15.923Z,39.77
2024-05-09T08:43:16.072Z,39.77
2024-05-09T08:44:15.940Z,39.74
2024-05-09T08:45:15.947Z,39.74
2024-05-09T08:46:15.984Z,39.73
2024-05-09T08:47:15.957Z,39.71
2024-05-09T08:48:16.655Z,39.72
2024-05-09T08:49:15.991Z,39.72
2024-05-09T08:50:28.571Z,39.72
2024-05-09T08:51:16.989Z,39.73
2024-05-09T08:52:16.013Z,39.74
2024-05-09T08:53:15.963Z,39.71
2024-05-09T08:54:15.946Z,39.70
2024-05-09T08:55:15.980Z,39.71
2024-05-09T08:56:15.970Z,39.69
2024-05-09T08:57:15.960Z,39.67
2024-05-09T08:58:16.511Z,39.69
2024-05-09T08:59:15.957Z,39.69
2024-05-09T09:00:21.737Z,39.66
2024-05-09T09:01:17.076Z,39.68
2024-05-09T09:02:16.214Z,39.69
2024-05-09T09:03:16.025Z,39.66
2024-05-09T09:04:16.151Z,39.65
2024-05-09T09:05:16.227Z,39.67
2024-05-09T09:06:15.972Z,39.64
2024-05-09T09:07:15.989Z,39.64
2024-05-09T09:08:15.976Z,39.65
2024-05-09T09:09:15.987Z,39.65
2024-05-09T09:10:25.178Z,39.65
2024-05-09T09:11:17.047Z,39.66
2024-05-09T09:12:15.994Z,39.67
2024-05-09T09:13:16.193Z,39.65
2024-05-09T09:14:16.030Z,39.65
2024-05-09T09:15:15.992Z,39.67
2024-05-09T09:16:16.011Z,39.64
2024-05-09T09:17:16.101Z,39.64
2024-05-09T09:18:16.233Z,39.62
2024-05-09T09:19:16.183Z,39.64
2024-05-09T09:20:23.056Z,39.62
2024-05-09T09:21:17.052Z,39.63
2024-05-09T09:22:16.103Z,39.62
2024-05-09T09:23:16.024Z,39.56
2024-05-09T09:24:16.048Z,39.49
2024-05-09T09:25:16.086Z,39.48
2024-05-09T09:26:16.107Z,39.41
2024-05-09T09:27:16.033Z,39.41
2024-05-09T09:28:16.159Z,39.42
2024-05-09T09:29:16.054Z,39.44
2024-05-09T09:30:30.718Z,39.44
2024-05-09T09:31:17.108Z,39.46
2024-05-09T09:32:16.063Z,39.44
2024-05-09T09:33:16.163Z,39.44
2024-05-09T09:34:16.275Z,39.44
2024-05-09T09:35:16.055Z,39.42
2024-05-09T09:36:16.098Z,39.42
2024-05-09T09:37:16.158Z,39.43
2024-05-09T09:38:16.043Z,39.39
2024-05-09T09:39:16.069Z,39.43
2024-05-09T09:40:18.387Z,39.40
2024-05-09T09:41:16.137Z,39.41
2024-05-09T09:42:16.108Z,39.42
2024-05-09T09:43:16.151Z,39.41
2024-05-09T09:44:16.104Z,39.42
2024-05-09T09:45:16.127Z,39.40
2024-05-09T09:46:16.299Z,39.40
2024-05-09T09:47:16.212Z,39.40
2024-05-09T09:48:16.237Z,39.41
2024-05-09T09:49:16.318Z,39.38
2024-05-09T09:50:20.638Z,39.37
2024-05-09T09:51:17.180Z,39.37
2024-05-09T09:52:16.271Z,39.37
2024-05-09T09:53:16.173Z,39.39
2024-05-09T09:54:16.174Z,39.37
2024-05-09T09:55:16.316Z,39.35
2024-05-09T09:56:16.207Z,39.36
2024-05-09T09:57:16.186Z,39.35
2024-05-09T09:58:16.244Z,39.35
2024-05-09T09:59:16.204Z,39.33
2024-05-09T10:00:23.634Z,39.35
2024-05-09T10:01:17.402Z,39.33
2024-05-09T10:02:16.471Z,39.33
2024-05-09T10:03:16.267Z,39.33
2024-05-09T10:04:16.273Z,39.32
2024-05-09T10:05:16.304Z,39.27
2024-05-09T10:06:16.209Z,39.30
2024-05-09T10:07:16.238Z,39.27
2024-05-09T10:08:16.264Z,39.30
2024-05-09T10:09:16.207Z,39.32
2024-05-09T10:10:19.946Z,39.31
2024-05-09T10:11:17.245Z,39.31
2024-05-09T10:12:16.272Z,39.29
2024-05-09T10:13:16.484Z,39.32
2024-05-09T10:14:16.220Z,39.32
2024-05-09T10:15:16.213Z,39.29
2024-05-09T10:16:16.273Z,39.30
2024-05-09T10:17:16.236Z,39.28
2024-05-09T10:18:16.630Z,39.26
2024-05-09T10:19:16.312Z,39.23
2024-05-09T10:20:21.846Z,39.23
2024-05-09T10:21:17.225Z,39.24
2024-05-09T10:22:16.334Z,39.24
2024-05-09T10:23:16.242Z,39.20
2024-05-09T10:24:16.227Z,39.20
2024-05-09T10:25:16.292Z,39.26
2024-05-09T10:26:16.233Z,39.24
2024-05-09T10:27:16.245Z,39.25
2024-05-09T10:28:16.322Z,39.27
2024-05-09T10:29:16.294Z,39.24
2024-05-09T10:30:25.758Z,39.24
2024-05-09T10:31:17.328Z,39.24
2024-05-09T10:32:16.279Z,39.21
2024-05-09T10:33:16.291Z,39.22
2024-05-09T10:34:16.463Z,39.21
2024-05-09T10:35:16.251Z,39.20
2024-05-09T10:36:16.336Z,39.23
2024-05-09T10:37:16.323Z,39.21
2024-05-09T10:38:16.293Z,39.21
2024-05-09T10:39:16.272Z,39.18
2024-05-09T10:40:23.367Z,39.18
2024-05-09T10:41:17.319Z,39.18
2024-05-09T10:42:16.280Z,39.17
2024-05-09T10:43:16.421Z,39.18
2024-05-09T10:44:16.296Z,39.16
2024-05-09T10:45:16.306Z,39.14
2024-05-09T10:46:16.711Z,39.13
2024-05-09T10:47:16.382Z,39.13
2024-05-09T10:48:16.348Z,39.10
2024-05-09T10:49:16.437Z,39.12
2024-05-09T10:50:22.607Z,39.11
2024-05-09T10:51:17.298Z,39.10
2024-05-09T10:52:16.454Z,39.12
2024-05-09T10:53:16.317Z,39.10
2024-05-09T10:54:16.298Z,39.12
2024-05-09T10:55:16.335Z,39.08
2024-05-09T10:56:16.416Z,39.09
2024-05-09T10:57:16.338Z,39.07
2024-05-09T10:58:16.360Z,39.10
2024-05-09T10:59:16.377Z,39.04
2024-05-09T11:00:26.958Z,39.06
2024-05-09T11:01:17.494Z,39.07
2024-05-09T11:02:16.451Z,39.07
2024-05-09T11:03:16.344Z,39.06
2024-05-09T11:04:16.743Z,39.06
2024-05-09T11:05:16.529Z,39.04
2024-05-09T11:06:16.343Z,39.06
2024-05-09T11:07:16.416Z,39.06
2024-05-09T11:08:16.339Z,39.04
2024-05-09T11:09:16.345Z,39.04
2024-05-09T11:10:24.852Z,39.04
2024-05-09T11:11:17.459Z,39.03
2024-05-09T11:12:16.402Z,39.01
2024-05-09T11:13:16.481Z,38.97
2024-05-09T11:14:16.419Z,39.02
2024-05-09T11:15:16.436Z,39.01
2024-05-09T11:16:16.683Z,39.01
2024-05-09T11:17:16.435Z,38.97
2024-05-09T11:18:16.628Z,38.99
2024-05-09T11:19:16.551Z,38.98
2024-05-09T11:20:22.952Z,38.97
2024-05-09T11:21:17.425Z,38.96
2024-05-09T11:22:16.577Z,38.94
2024-05-09T11:23:16.438Z,38.95
2024-05-09T11:24:16.434Z,38.96
2024-05-09T11:25:16.482Z,38.94
2024-05-09T11:26:16.415Z,38.92
2024-05-09T11:27:16.428Z,38.92
2024-05-09T11:28:16.499Z,38.91
2024-05-09T11:29:19.432Z,38.90
2024-05-09T11:30:23.790Z,38.93
2024-05-09T11:31:17.713Z,38.91
2024-05-09T11:32:16.573Z,38.92
2024-05-09T11:33:16.498Z,38.90
2024-05-09T11:34:16.691Z,38.91
2024-05-09T11:35:16.444Z,38.88
2024-05-09T11:36:16.479Z,38.87
2024-05-09T11:37:16.577Z,38.85
2024-05-09T11:38:16.468Z,38.85
2024-05-09T11:39:16.557Z,38.86
2024-05-09T11:40:21.557Z,38.85
2024-05-09T11:41:17.470Z,38.87
2024-05-09T11:42:16.473Z,38.85
2024-05-09T11:43:16.676Z,38.81
2024-05-09T11:44:16.481Z,38.81
2024-05-09T11:45:16.545Z,38.80
2024-05-09T11:46:16.707Z,38.81
2024-05-09T11:47:16.559Z,38.80
2024-05-09T11:48:16.578Z,38.80
2024-05-09T11:49:16.766Z,38.81
2024-05-09T11:50:26.664Z,38.81
2024-05-09T11:51:17.585Z,38.81
2024-05-09T11:52:16.684Z,38.78
2024-05-09T11:53:16.576Z,38.81
2024-05-09T11:54:16.579Z,38.77
2024-05-09T11:55:16.817Z,38.76
2024-05-09T11:56:16.561Z,38.77
2024-05-09T11:57:16.573Z,38.76
2024-05-09T11:58:16.674Z,38.76
2024-05-09T11:59:16.583Z,38.76
2024-05-09T12:00:24.591Z,38.75
2024-05-09T12:01:17.682Z,38.78
2024-05-09T12:02:16.971Z,38.77
2024-05-09T12:03:16.683Z,38.76
2024-05-09T12:04:16.913Z,38.77
2024-05-09T12:05:16.910Z,38.75
2024-05-09T12:06:16.733Z,38.77
2024-05-09T12:07:16.822Z,38.75
2024-05-09T12:08:16.691Z,38.76
2024-05-09T12:09:16.645Z,38.74
2024-05-09T12:10:22.176Z,38.76
2024-05-09T12:11:17.755Z,38.77
2024-05-09T12:12:16.726Z,38.76
2024-05-09T12:13:16.880Z,38.76
2024-05-09T12:14:16.719Z,38.75
2024-05-09T12:15:17.025Z,38.75
2024-05-09T12:16:17.005Z,38.75
2024-05-09T12:17:16.847Z,38.74
2024-05-09T12:18:16.778Z,38.77
2024-05-09T12:19:16.815Z,38.77
2024-05-09T12:20:25.031Z,38.80
2024-05-09T12:21:17.767Z,38.78
2024-05-09T12:22:16.956Z,38.84
2024-05-09T12:23:16.754Z,38.87
2024-05-09T12:24:18.585Z,38.85
2024-05-09T12:25:16.843Z,38.87
2024-05-09T12:26:16.761Z,38.88
2024-05-09T12:27:16.766Z,38.90
2024-05-09T12:28:16.959Z,38.90
2024-05-09T12:29:16.767Z,38.87
2024-05-09T12:30:24.696Z,38.90
2024-05-09T12:31:17.840Z,38.89
2024-05-09T12:32:16.870Z,38.93
2024-05-09T12:33:17.051Z,38.95
2024-05-09T12:34:16.950Z,38.94
2024-05-09T12:35:16.820Z,38.94
2024-05-09T12:36:16.847Z,38.95
2024-05-09T12:37:16.908Z,38.93
2024-05-09T12:38:16.823Z,38.90
2024-05-09T12:39:16.825Z,38.87
2024-05-09T12:40:26.202Z,38.87
2024-05-09T12:41:17.842Z,38.87
2024-05-09T12:42:26.530Z,38.89
2024-05-09T12:43:17.954Z,38.90
2024-05-09T12:44:16.850Z,38.92
2024-05-09T12:45:16.862Z,38.90
2024-05-09T12:46:16.904Z,38.92
2024-05-09T12:47:16.915Z,38.89
2024-05-09T12:48:17.047Z,38.89
2024-05-09T12:49:19.277Z,38.88
2024-05-09T12:50:25.073Z,38.89
2024-05-09T12:51:17.861Z,38.91
2024-05-09T12:52:16.979Z,38.93
2024-05-09T12:53:16.854Z,38.93
2024-05-09T12:54:16.891Z,38.92